createdAt,value
2023-03-08T00:01:23.397Z,98281.56
2023-03-08T00:03:53.686Z,98281.86
2023-03-08T00:06:22.864Z,98273.27
2023-03-08T00:08:54.261Z,98271.82
2023-03-08T00:11:22.542Z,98284.95
2023-03-08T00:13:50.642Z,98297.92
2023-03-08T00:16:18.972Z,98288.33
2023-03-08T00:18:47.480Z,98276.70
2023-03-08T00:21:18.460Z,98285.23
2023-03-08T00:23:47.554Z,98295.66
2023-03-08T00:26:15.847Z,98308.14
2023-03-08T00:28:46.851Z,98308.15
2023-03-08T00:31:15.253Z,98342.44
2023-03-08T00:33:43.482Z,98296.61
2023-03-08T00:36:18.187Z,98305.27
2023-03-08T00:38:47.500Z,98289.14
2023-03-08T00:41:16.096Z,98276.23
2023-03-08T00:43:44.865Z,98267.27
2023-03-08T00:46:14.198Z,98263.92
2023-03-08T00:48:42.961Z,98278.15
2023-03-08T00:51:15.933Z,98264.72
2023-03-08T00:53:44.120Z,98276.52
2023-03-08T00:56:13.134Z,98272.56
2023-03-08T00:58:42.296Z,98276.83
2023-03-08T01:01:17.613Z,98313.06
2023-03-08T01:03:47.786Z,98277.77
2023-03-08T01:06:17.876Z,98304.48
2023-03-08T01:08:46.141Z,98278.06
2023-03-08T01:11:25.460Z,98294.48
2023-03-08T01:13:54.673Z,98284.09
2023-03-08T01:16:28.271Z,98296.28
2023-03-08T01:18:57.716Z,98275.98
2023-03-08T01:21:27.542Z,98287.77
2023-03-08T01:23:56.204Z,98279.94
2023-03-08T01:26:26.521Z,98289.16
2023-03-08T01:28:58.182Z,98308.99
2023-03-08T01:31:29.334Z,98294.54
2023-03-08T01:33:58.694Z,98286.55
2023-03-08T01:36:28.415Z,98284.89
2023-03-08T01:39:00.185Z,98280.28
2023-03-08T01:41:29.974Z,98275.00
2023-03-08T01:43:58.623Z,98275.52
2023-03-08T01:46:32.276Z,98302.12
2023-03-08T01:49:23.183Z,98316.63
2023-03-08T01:52:02.981Z,98299.37
2023-03-08T01:54:48.232Z,98305.20
2023-03-08T01:57:27.141Z,98292.39
2023-03-08T02:00:11.199Z,98305.70
2023-03-08T02:03:06.008Z,98295.90
2023-03-08T02:05:37.750Z,98309.36
2023-03-08T02:08:13.678Z,98316.16
2023-03-08T02:10:43.237Z,98306.73
2023-03-08T02:13:12.939Z,98303.98
2023-03-08T02:15:43.771Z,98328.44
2023-03-08T02:18:12.222Z,98361.15
2023-03-08T02:20:41.861Z,98344.38
2023-03-08T02:23:16.481Z,98346.27
2023-03-08T02:26:04.264Z,98318.61
2023-03-08T02:28:32.675Z,98334.16
2023-03-08T02:31:01.099Z,98347.80
2023-03-08T02:33:30.757Z,98353.00
2023-03-08T02:35:58.965Z,98362.50
2023-03-08T02:38:28.714Z,98341.29
2023-03-08T02:40:56.913Z,98358.95
2023-03-08T02:43:25.049Z,98332.77
2023-03-08T02:45:53.239Z,98342.71
2023-03-08T02:48:21.588Z,98340.55
2023-03-08T02:50:49.949Z,98339.91
2023-03-08T02:53:18.146Z,98342.88
2023-03-08T02:55:46.221Z,98351.16
2023-03-08T02:58:14.875Z,98360.91
2023-03-08T03:00:43.124Z,98363.34
2023-03-08T03:03:11.244Z,98367.11
2023-03-08T03:05:43.832Z,98360.18
2023-03-08T03:08:13.982Z,98359.80
2023-03-08T03:10:42.115Z,98364.98
2023-03-08T03:13:10.294Z,98349.85
2023-03-08T03:15:40.188Z,98351.73
2023-03-08T03:18:08.426Z,98349.88
2023-03-08T03:20:36.559Z,98359.77
2023-03-08T03:23:04.908Z,98354.47
2023-03-08T03:25:40.870Z,98364.86
2023-03-08T03:28:10.834Z,98376.63
2023-03-08T03:30:39.850Z,98391.02
2023-03-08T03:33:10.689Z,98394.64
2023-03-08T03:35:39.775Z,98374.41
2023-03-08T03:38:08.754Z,98373.77
2023-03-08T03:40:37.414Z,98380.65
2023-03-08T03:43:05.901Z,98390.62
2023-03-08T03:45:34.021Z,98399.52
2023-03-08T03:48:02.228Z,98396.10
2023-03-08T03:50:30.691Z,98379.23
2023-03-08T03:53:03.327Z,98386.23
2023-03-08T03:55:31.862Z,98408.73
2023-03-08T03:58:00.532Z,98397.37
2023-03-08T04:00:28.795Z,98412.38
2023-03-08T04:03:04.021Z,98420.75
2023-03-08T04:05:32.877Z,98416.19
2023-03-08T04:08:01.051Z,98417.24
2023-03-08T04:10:31.761Z,98393.41
2023-03-08T04:13:00.713Z,98396.98
2023-03-08T04:15:29.241Z,98410.80
2023-03-08T04:17:59.452Z,98415.71
2023-03-08T04:20:29.921Z,98423.88
2023-03-08T04:23:00.106Z,98420.45
2023-03-08T04:25:33.118Z,98430.20
2023-03-08T04:28:02.217Z,98440.82
2023-03-08T04:30:33.656Z,98442.05
2023-03-08T04:33:02.438Z,98419.40
2023-03-08T04:35:37.130Z,98429.79
2023-03-08T04:38:05.659Z,98417.69
2023-03-08T04:40:54.130Z,98444.45
2023-03-08T04:43:23.146Z,98449.72
2023-03-08T04:45:51.641Z,98453.47
2023-03-08T04:48:20.274Z,98455.85
2023-03-08T04:50:56.721Z,98452.50
2023-03-08T04:53:27.216Z,98442.13
2023-03-08T04:55:55.777Z,98443.17
2023-03-08T04:58:24.741Z,98441.16
2023-03-08T05:00:52.858Z,98450.73
2023-03-08T05:03:21.451Z,98453.45
2023-03-08T05:05:52.213Z,98442.89
2023-03-08T05:08:22.940Z,98443.38
2023-03-08T05:11:01.070Z,98460.55
2023-03-08T05:13:34.019Z,98465.14
2023-03-08T05:16:03.888Z,98448.94
2023-03-08T05:18:32.278Z,98473.82
2023-03-08T05:21:06.547Z,98449.10
2023-03-08T05:23:35.191Z,98466.32
2023-03-08T05:26:04.968Z,98470.42
2023-03-08T05:28:37.172Z,98462.42
2023-03-08T05:31:17.783Z,98470.77
2023-03-08T05:33:51.050Z,98459.16
2023-03-08T05:36:23.432Z,98454.88
2023-03-08T05:38:54.955Z,98461.83
2023-03-08T05:41:24.814Z,98462.67
2023-03-08T05:43:54.135Z,98471.14
2023-03-08T05:46:22.827Z,98479.29
2023-03-08T05:48:51.025Z,98465.95
2023-03-08T05:51:20.084Z,98465.55
2023-03-08T05:53:48.193Z,98471.12
2023-03-08T05:56:19.613Z,98468.70
2023-03-08T05:59:13.597Z,98482.64
2023-03-08T06:01:41.979Z,98486.54
2023-03-08T06:04:36.609Z,98513.58
2023-03-08T06:07:04.881Z,98506.24
2023-03-08T06:09:42.739Z,98497.35
2023-03-08T06:12:14.352Z,98512.13
2023-03-08T06:14:42.496Z,98482.90
2023-03-08T06:17:10.715Z,98500.42
2023-03-08T06:19:42.399Z,98525.97
2023-03-08T06:22:12.752Z,98528.82
2023-03-08T06:24:41.383Z,98517.34
2023-03-08T06:27:09.675Z,98533.64
2023-03-08T06:29:39.188Z,98539.39
2023-03-08T06:32:07.500Z,98546.15
2023-03-08T06:34:36.974Z,98537.06
2023-03-08T06:37:05.227Z,98565.31
2023-03-08T06:39:34.380Z,98560.98
2023-03-08T06:42:03.493Z,98570.14
2023-03-08T06:44:31.957Z,98576.21
2023-03-08T06:47:00.188Z,98568.96
2023-03-08T06:49:28.356Z,98585.12
2023-03-08T06:51:56.514Z,98603.81
2023-03-08T06:54:24.820Z,98626.14
2023-03-08T06:56:52.834Z,98635.65
2023-03-08T06:59:21.059Z,98601.96
2023-03-08T07:01:49.110Z,98637.59
2023-03-08T07:04:18.595Z,98639.90
2023-03-08T07:06:46.772Z,98642.10
2023-03-08T07:09:14.957Z,98638.65
2023-03-08T07:11:43.558Z,98637.59
2023-03-08T07:14:11.758Z,98641.15
2023-03-08T07:16:39.823Z,98673.55
2023-03-08T07:19:08.193Z,98672.48
2023-03-08T07:21:37.340Z,98679.46
2023-03-08T07:24:05.614Z,98658.10
2023-03-08T07:26:33.701Z,98674.27
2023-03-08T07:29:01.841Z,98684.33
2023-03-08T07:31:30.876Z,98686.02
2023-03-08T07:33:58.998Z,98687.89
2023-03-08T07:36:27.077Z,98678.99
2023-03-08T07:38:55.608Z,98687.63
2023-03-08T07:41:23.850Z,98675.63
2023-03-08T07:43:51.898Z,98715.20
2023-03-08T07:46:21.520Z,98713.92
2023-03-08T07:48:49.585Z,98709.23
2023-03-08T07:51:17.721Z,98707.65
2023-03-08T07:53:45.986Z,98743.31
2023-03-08T07:56:14.022Z,98722.90
2023-03-08T07:58:42.135Z,98738.57
2023-03-08T08:01:12.634Z,98743.84
2023-03-08T08:03:40.967Z,98724.85
2023-03-08T08:06:10.071Z,98728.40
2023-03-08T08:08:38.387Z,98755.17
2023-03-08T08:11:15.230Z,98749.01
2023-03-08T08:13:43.444Z,98756.35
2023-03-08T08:16:12.147Z,98765.73
2023-03-08T08:18:40.538Z,98789.11
2023-03-08T08:21:11.681Z,98769.42
2023-03-08T08:23:41.552Z,98794.01
2023-03-08T08:26:13.546Z,98775.70
2023-03-08T08:28:43.105Z,98767.11
2023-03-08T08:31:15.382Z,98798.34
2023-03-08T08:33:43.870Z,98806.17
2023-03-08T08:36:14.848Z,98849.56
2023-03-08T08:38:43.739Z,98835.20
2023-03-08T08:41:15.495Z,98843.59
2023-03-08T08:43:45.336Z,98820.34
2023-03-08T08:46:15.005Z,98822.73
2023-03-08T08:48:43.959Z,98822.34
2023-03-08T08:51:14.624Z,98831.18
2023-03-08T08:53:44.403Z,98831.80
2023-03-08T08:56:29.287Z,98869.88
2023-03-08T08:59:01.995Z,98882.73
2023-03-08T09:01:32.694Z,98863.25
2023-03-08T09:04:00.907Z,98857.92
2023-03-08T09:06:29.735Z,98859.48
2023-03-08T09:08:59.082Z,98885.44
2023-03-08T09:11:28.377Z,98902.55
2023-03-08T09:13:57.274Z,98879.66
2023-03-08T09:16:28.655Z,98895.05
2023-03-08T09:18:58.750Z,98891.81
2023-03-08T09:21:28.363Z,98879.52
2023-03-08T09:24:00.457Z,98894.68
2023-03-08T09:26:30.437Z,98894.80
2023-03-08T09:29:04.892Z,98884.84
2023-03-08T09:31:36.685Z,98905.96
2023-03-08T09:34:09.467Z,98880.95
2023-03-08T09:36:41.340Z,98899.05
2023-03-08T09:39:11.430Z,98910.62
2023-03-08T09:41:48.439Z,98945.27
2023-03-08T09:44:23.248Z,98949.33
2023-03-08T09:46:59.123Z,98921.05
2023-03-08T09:49:32.453Z,98953.86
2023-03-08T09:52:15.885Z,98983.02
2023-03-08T09:54:46.163Z,98947.13
2023-03-08T09:57:23.603Z,98946.95
2023-03-08T09:59:54.731Z,98929.91
2023-03-08T10:02:44.229Z,98934.19
2023-03-08T10:05:40.301Z,98939.94
2023-03-08T10:08:26.319Z,98946.38
2023-03-08T10:11:13.673Z,98944.40
2023-03-08T10:13:44.198Z,98946.73
2023-03-08T10:16:32.413Z,98941.34
2023-03-08T10:19:06.872Z,98966.75
2023-03-08T10:21:40.368Z,98965.13
2023-03-08T10:24:33.531Z,98997.48
2023-03-08T10:27:15.574Z,99018.92
2023-03-08T10:29:56.900Z,98975.52
2023-03-08T10:32:27.340Z,98974.66
2023-03-08T10:35:04.711Z,98982.17
2023-03-08T10:37:34.050Z,99007.02
2023-03-08T10:40:06.885Z,99003.73
2023-03-08T10:42:36.410Z,98997.65
2023-03-08T10:45:15.398Z,98982.13
2023-03-08T10:47:57.553Z,98991.75
2023-03-08T10:50:37.555Z,99024.05
2023-03-08T10:53:18.849Z,99002.02
2023-03-08T10:55:50.067Z,98998.77
2023-03-08T10:58:37.400Z,99015.27
2023-03-08T11:01:22.676Z,99015.31
2023-03-08T11:04:03.205Z,98994.06
2023-03-08T11:06:35.416Z,99012.06
2023-03-08T11:09:19.312Z,99013.66
2023-03-08T11:11:47.851Z,98990.74
2023-03-08T11:14:16.662Z,98983.10
2023-03-08T11:17:23.787Z,98976.73
2023-03-08T11:20:11.452Z,98994.67
2023-03-08T11:23:11.009Z,99007.02
2023-03-08T11:26:01.051Z,99013.98
2023-03-08T11:28:42.908Z,98997.73
2023-03-08T11:31:29.784Z,99001.84
2023-03-08T11:34:13.570Z,99017.35
2023-03-08T11:36:57.961Z,99003.45
2023-03-08T11:39:36.667Z,99027.15
2023-03-08T11:42:17.916Z,98998.52
2023-03-08T11:45:01.310Z,99003.93
2023-03-08T11:47:53.427Z,99013.71
2023-03-08T11:50:39.084Z,99005.70
2023-03-08T11:53:16.728Z,99009.77
2023-03-08T11:56:10.482Z,99030.21
2023-03-08T11:58:41.929Z,99040.06
2023-03-08T12:01:23.586Z,99052.61
2023-03-08T12:04:03.230Z,99034.97
2023-03-08T12:06:40.293Z,99037.17
2023-03-08T12:09:40.539Z,99049.88
2023-03-08T12:12:18.724Z,99041.15
2023-03-08T12:15:20.897Z,99046.78
2023-03-08T12:17:55.865Z,99044.05
2023-03-08T12:20:27.850Z,99040.11
2023-03-08T12:23:19.608Z,99047.71
2023-03-08T12:25:57.497Z,99041.81
2023-03-08T12:28:34.294Z,99045.23
2023-03-08T12:31:27.801Z,99056.20
2023-03-08T12:33:59.166Z,99042.02
2023-03-08T12:36:39.811Z,99070.43
2023-03-08T12:39:26.439Z,99037.91
2023-03-08T12:42:05.763Z,99042.71
2023-03-08T12:44:34.259Z,99035.04
2023-03-08T12:47:19.098Z,99049.25
2023-03-08T12:49:52.078Z,99052.65
2023-03-08T12:52:20.599Z,99047.50
2023-03-08T12:55:01.131Z,99059.42
2023-03-08T12:57:34.152Z,99072.52
2023-03-08T13:00:10.687Z,99074.19
2023-03-08T13:02:39.013Z,99070.91
2023-03-08T13:05:24.587Z,99064.05
2023-03-08T13:08:12.684Z,99079.46
2023-03-08T13:10:56.038Z,99095.05
2023-03-08T13:13:39.000Z,99072.27
2023-03-08T13:16:39.673Z,99084.79
2023-03-08T13:19:19.312Z,99078.79
2023-03-08T13:21:49.692Z,99082.05
2023-03-08T13:24:45.990Z,99082.93
2023-03-08T13:27:21.534Z,99077.04
2023-03-08T13:29:50.372Z,99077.61
2023-03-08T13:32:20.941Z,99076.46
2023-03-08T13:35:00.949Z,99087.73
2023-03-08T13:37:30.663Z,99090.73
2023-03-08T13:40:00.626Z,99093.66
2023-03-08T13:42:29.438Z,99090.60
2023-03-08T13:45:17.532Z,99071.97
2023-03-08T13:47:47.386Z,99085.21
2023-03-08T13:50:31.496Z,99089.42
2023-03-08T13:53:03.006Z,99080.59
2023-03-08T13:55:39.357Z,99088.21
2023-03-08T13:58:22.209Z,99092.81
2023-03-08T14:01:02.719Z,99087.73
2023-03-08T14:03:33.289Z,99095.36
2023-03-08T14:06:01.976Z,99102.47
2023-03-08T14:08:30.585Z,99102.67
2023-03-08T14:11:01.683Z,99100.59
2023-03-08T14:13:36.572Z,99098.69
2023-03-08T14:16:09.426Z,99098.66
2023-03-08T14:18:40.556Z,99097.77
2023-03-08T14:21:24.811Z,99092.24
2023-03-08T14:23:56.899Z,99098.13
2023-03-08T14:26:31.414Z,99112.55
2023-03-08T14:29:08.804Z,99103.58
2023-03-08T14:31:39.257Z,99113.59
2023-03-08T14:34:29.140Z,99100.30
2023-03-08T14:37:22.694Z,99100.25
2023-03-08T14:39:56.709Z,99095.83
2023-03-08T14:42:41.805Z,99095.45
2023-03-08T14:45:31.784Z,99092.95
2023-03-08T14:48:14.061Z,99107.94
2023-03-08T14:50:54.123Z,99103.81
2023-03-08T14:53:38.138Z,99099.78
2023-03-08T14:56:14.841Z,99100.36
2023-03-08T14:58:46.908Z,99087.38
2023-03-08T15:01:26.925Z,99091.36
2023-03-08T15:03:56.356Z,99094.93
2023-03-08T15:06:28.578Z,99103.76
2023-03-08T15:08:58.582Z,99098.52
2023-03-08T15:11:31.617Z,99096.16
2023-03-08T15:13:59.949Z,99088.59
2023-03-08T15:16:28.339Z,99097.02
2023-03-08T15:18:56.780Z,99100.21
2023-03-08T15:21:29.432Z,99096.12
2023-03-08T15:23:59.045Z,99101.34
2023-03-08T15:26:31.669Z,99105.51
2023-03-08T15:29:03.519Z,99103.73
2023-03-08T15:31:32.185Z,99102.85
2023-03-08T15:34:01.790Z,99106.44
2023-03-08T15:36:34.872Z,99103.14
2023-03-08T15:39:04.760Z,99104.23
2023-03-08T15:41:33.193Z,99108.71
2023-03-08T15:44:01.372Z,99111.05
2023-03-08T15:46:29.683Z,99113.58
2023-03-08T15:48:57.790Z,99113.38
2023-03-08T15:51:31.420Z,99113.66
2023-03-08T15:53:59.585Z,99116.21
2023-03-08T15:56:27.991Z,99114.20
2023-03-08T15:58:57.137Z,99117.83
2023-03-08T16:01:26.958Z,99118.61
2023-03-08T16:03:56.960Z,99117.00
2023-03-08T16:06:27.237Z,99121.08
2023-03-08T16:08:56.689Z,99129.55
2023-03-08T16:11:25.033Z,99125.59
2023-03-08T16:13:53.244Z,99132.30
2023-03-08T16:16:21.555Z,99136.30
2023-03-08T16:18:49.801Z,99135.20
2023-03-08T16:21:18.011Z,99129.44
2023-03-08T16:23:46.101Z,99135.21
2023-03-08T16:26:17.609Z,99133.38
2023-03-08T16:28:47.271Z,99137.00
2023-03-08T16:31:19.881Z,99139.77
2023-03-08T16:33:48.882Z,99139.01
2023-03-08T16:36:17.209Z,99144.05
2023-03-08T16:38:45.361Z,99143.09
2023-03-08T16:41:14.612Z,99150.33
2023-03-08T16:43:48.097Z,99151.60
2023-03-08T16:46:20.475Z,99156.09
2023-03-08T16:48:50.358Z,99164.20
2023-03-08T16:51:20.706Z,99167.67
2023-03-08T16:53:49.490Z,99166.35
2023-03-08T16:56:23.025Z,99168.98
2023-03-08T16:58:51.784Z,99175.02
2023-03-08T17:01:20.838Z,99174.55
2023-03-08T17:03:49.557Z,99178.85
2023-03-08T17:06:20.828Z,99177.70
2023-03-08T17:08:49.087Z,99175.85
2023-03-08T17:11:28.543Z,99169.17
2023-03-08T17:13:59.480Z,99174.14
2023-03-08T17:16:30.102Z,99175.48
2023-03-08T17:19:00.673Z,99176.39
2023-03-08T17:21:29.449Z,99180.17
2023-03-08T17:23:59.484Z,99180.23
2023-03-08T17:26:27.793Z,99180.81
2023-03-08T17:28:55.993Z,99186.83
2023-03-08T17:31:24.375Z,99189.57
2023-03-08T17:33:52.987Z,99190.31
2023-03-08T17:36:21.722Z,99192.23
2023-03-08T17:38:53.250Z,99190.59
2023-03-08T17:41:22.894Z,99193.73
2023-03-08T17:43:51.930Z,99195.49
2023-03-08T17:46:26.275Z,99193.33
2023-03-08T17:48:55.810Z,99199.92
2023-03-08T17:51:27.250Z,99200.86
2023-03-08T17:53:58.048Z,99194.79
2023-03-08T17:56:29.762Z,99200.84
2023-03-08T17:59:00.973Z,99201.78
2023-03-08T18:01:31.289Z,99200.30
2023-03-08T18:04:00.447Z,99203.41
2023-03-08T18:06:40.837Z,99201.21
2023-03-08T18:09:14.962Z,99194.23
2023-03-08T18:11:43.902Z,99193.39
2023-03-08T18:14:14.168Z,99188.66
2023-03-08T18:16:44.918Z,99184.06
2023-03-08T18:19:13.356Z,99186.32
2023-03-08T18:21:41.837Z,99186.48
2023-03-08T18:24:11.931Z,99188.18
2023-03-08T18:26:40.599Z,99181.19
2023-03-08T18:29:08.824Z,99185.79
2023-03-08T18:31:37.510Z,99180.34
2023-03-08T18:34:07.605Z,99181.72
2023-03-08T18:36:37.037Z,99179.55
2023-03-08T18:39:08.828Z,99181.46
2023-03-08T18:41:37.272Z,99175.67
2023-03-08T18:44:06.542Z,99176.85
2023-03-08T18:46:35.003Z,99172.56
2023-03-08T18:49:07.123Z,99172.23
2023-03-08T18:51:37.571Z,99169.69
2023-03-08T18:54:09.131Z,99168.34
2023-03-08T18:56:38.006Z,99171.63
2023-03-08T18:59:07.867Z,99171.33
2023-03-08T19:01:36.855Z,99172.55
2023-03-08T19:04:08.231Z,99170.73
2023-03-08T19:06:37.292Z,99174.17
2023-03-08T19:09:16.535Z,99169.94
2023-03-08T19:11:48.203Z,99165.33
2023-03-08T19:14:17.563Z,99169.08
2023-03-08T19:16:46.033Z,99167.20
2023-03-08T19:19:16.083Z,99167.55
2023-03-08T19:21:46.984Z,99162.77
2023-03-08T19:24:17.230Z,99164.51
2023-03-08T19:26:49.320Z,99164.68
2023-03-08T19:29:20.271Z,99159.39
2023-03-08T19:32:00.471Z,99159.54
2023-03-08T19:34:33.113Z,99159.88
2023-03-08T19:37:02.304Z,99155.77
2023-03-08T19:39:33.156Z,99157.31
2023-03-08T19:42:03.803Z,99161.06
2023-03-08T19:44:33.875Z,99159.50
2023-03-08T19:47:04.844Z,99162.05
2023-03-08T19:49:36.177Z,99163.95
2023-03-08T19:52:06.084Z,99168.52
2023-03-08T19:54:34.885Z,99168.02
2023-03-08T19:57:05.224Z,99165.80
2023-03-08T19:59:36.840Z,99166.13
2023-03-08T20:02:07.626Z,99168.33
2023-03-08T20:04:36.693Z,99164.02
2023-03-08T20:07:04.947Z,99163.85
2023-03-08T20:09:33.317Z,99164.88
2023-03-08T20:12:01.511Z,99164.02
2023-03-08T20:14:30.101Z,99170.16
2023-03-08T20:16:59.379Z,99170.67
2023-03-08T20:19:32.110Z,99167.08
2023-03-08T20:22:00.782Z,99164.87
2023-03-08T20:24:29.009Z,99169.83
2023-03-08T20:26:57.159Z,99168.98
2023-03-08T20:29:25.364Z,99165.73
2023-03-08T20:31:56.182Z,99166.45
2023-03-08T20:34:25.684Z,99167.83
2023-03-08T20:36:53.860Z,99169.36
2023-03-08T20:39:22.752Z,99168.52
2023-03-08T20:41:50.881Z,99169.73
2023-03-08T20:44:18.939Z,99170.08
2023-03-08T20:46:48.638Z,99172.14
2023-03-08T20:49:16.996Z,99168.73
2023-03-08T20:51:45.153Z,99174.58
2023-03-08T20:54:13.222Z,99172.02
2023-03-08T20:56:41.488Z,99169.98
2023-03-08T20:59:11.127Z,99169.81
2023-03-08T21:01:40.936Z,99172.55
2023-03-08T21:04:09.183Z,99172.39
2023-03-08T21:06:37.673Z,99172.05
2023-03-08T21:09:05.832Z,99169.88
2023-03-08T21:11:34.065Z,99169.20
2023-03-08T21:14:02.356Z,99171.61
2023-03-08T21:16:31.583Z,99166.70
2023-03-08T21:19:02.891Z,99164.33
2023-03-08T21:21:37.422Z,99166.06
2023-03-08T21:24:17.274Z,99162.50
2023-03-08T21:26:45.802Z,99162.69
2023-03-08T21:29:16.753Z,99162.55
2023-03-08T21:31:48.620Z,99160.55
2023-03-08T21:34:18.156Z,99162.42
2023-03-08T21:36:46.582Z,99157.67
2023-03-08T21:39:14.856Z,99153.92
2023-03-08T21:41:45.412Z,99154.79
2023-03-08T21:44:17.219Z,99154.80
2023-03-08T21:46:47.757Z,99159.06
2023-03-08T21:49:22.512Z,99158.91
2023-03-08T21:51:52.751Z,99160.65
2023-03-08T21:54:22.075Z,99160.49
2023-03-08T21:56:51.140Z,99157.95
2023-03-08T21:59:19.626Z,99157.95
2023-03-08T22:01:48.888Z,99154.88
2023-03-08T22:04:17.595Z,99151.30
2023-03-08T22:06:46.712Z,99153.17
2023-03-08T22:09:15.056Z,99154.73
2023-03-08T22:11:43.186Z,99153.89
2023-03-08T22:14:11.457Z,99157.63
2023-03-08T22:16:42.656Z,99156.94
2023-03-08T22:19:11.639Z,99154.88
2023-03-08T22:21:39.839Z,99154.04
2023-03-08T22:24:08.022Z,99155.25
2023-03-08T22:26:36.417Z,99156.10
2023-03-08T22:29:04.862Z,99158.67
2023-03-08T22:31:33.058Z,99155.95
2023-03-08T22:34:01.874Z,99161.07
2023-03-08T22:36:30.022Z,99163.13
2023-03-08T22:38:58.074Z,99162.61
2023-03-08T22:41:27.787Z,99166.36
2023-03-08T22:43:56.162Z,99163.65
2023-03-08T22:46:26.950Z,99161.95
2023-03-08T22:48:58.293Z,99159.91
2023-03-08T22:51:28.420Z,99160.26
2023-03-08T22:53:59.146Z,99160.94
2023-03-08T22:56:33.387Z,99162.65
2023-03-08T22:59:02.619Z,99163.52
2023-03-08T23:01:32.617Z,99164.35
2023-03-08T23:04:02.511Z,99166.56
2023-03-08T23:06:31.689Z,99167.77
2023-03-08T23:09:02.598Z,99170.48
2023-03-08T23:11:30.738Z,99171.86
2023-03-08T23:13:59.339Z,99171.17
2023-03-08T23:16:27.978Z,99172.53
2023-03-08T23:18:56.180Z,99177.83
2023-03-08T23:21:27.531Z,99179.02
2023-03-08T23:23:57.644Z,99179.20
2023-03-08T23:26:27.524Z,99182.27
2023-03-08T23:28:58.048Z,99182.95
2023-03-08T23:31:29.067Z,99182.79
2023-03-08T23:33:57.542Z,99184.48
2023-03-08T23:36:27.444Z,99187.75
2023-03-08T23:38:55.651Z,99187.08
2023-03-08T23:41:24.513Z,99188.77
2023-03-08T23:43:57.712Z,99186.58
2023-03-08T23:46:26.817Z,99189.80
2023-03-08T23:48:57.025Z,99188.79
2023-03-08T23:51:27.670Z,99191.34
2023-03-08T23:53:58.181Z,99193.56
2023-03-08T23:56:30.930Z,99195.64
2023-03-08T23:59:02.609Z,99193.43
